sensor_id;sensor_type;location;lat;lon;timestamp;P1;durP1;ratioP1;P2;durP2;ratioP2
5823;SDS011;2938;52.254;12.988;2022-12-31T00:02:09;1.35;;;1.05;;
5823;SDS011;2938;52.254;12.988;2022-12-31T00:04:38;2.08;;;1.65;;
5823;SDS011;2938;52.254;12.988;2022-12-31T00:07:03;1.67;;;1.40;;
5823;SDS011;2938;52.254;12.988;2022-12-31T00:09:28;2.10;;;1.17;;
5823;SDS011;2938;52.254;12.988;2022-12-31T00:11:53;1.60;;;1.15;;
5823;SDS011;2938;52.254;12.988;2022-12-31T00:14:19;2.60;;;1.33;;
5823;SDS011;2938;52.254;12.988;2022-12-31T00:16:44;2.15;;;1.27;;
5823;SDS011;2938;52.254;12.988;2022-12-31T00:19:10;1.65;;;0.98;;
5823;SDS011;2938;52.254;12.988;2022-12-31T00:21:36;3.90;;;0.98;;
5823;SDS011;2938;52.254;12.988;2022-12-31T00:24:02;1.55;;;1.42;;
5823;SDS011;2938;52.254;12.988;2022-12-31T00:26:29;2.03;;;1.33;;
5823;SDS011;2938;52.254;12.988;2022-12-31T00:28:56;1.15;;;1.00;;
5823;SDS011;2938;52.254;12.988;2022-12-31T00:31:25;2.05;;;1.17;;
5823;SDS011;2938;52.254;12.988;2022-12-31T00:33:52;1.20;;;0.70;;
5823;SDS011;2938;52.254;12.988;2022-12-31T00:36:23;1.25;;;1.00;;
5823;SDS011;2938;52.254;12.988;2022-12-31T00:38:53;1.00;;;1.00;;
5823;SDS011;2938;52.254;12.988;2022-12-31T00:41:19;3.10;;;1.38;;
5823;SDS011;2938;52.254;12.988;2022-12-31T01:01:15;0.93;;;0.75;;
5823;SDS011;2938;52.254;12.988;2022-12-31T01:03:42;0.77;;;0.60;;
5823;SDS011;2938;52.254;12.988;2022-12-31T01:06:07;0.73;;;0.65;;
5823;SDS011;2938;52.254;12.988;2022-12-31T01:08:38;0.33;;;0.33;;
5823;SDS011;2938;52.254;12.988;2022-12-31T01:11:04;0.55;;;0.47;;
5823;SDS011;2938;52.254;12.988;2022-12-31T01:13:43;3.20;;;0.38;;
5823;SDS011;2938;52.254;12.988;2022-12-31T01:16:13;0.80;;;0.80;;
5823;SDS011;2938;52.254;12.988;2022-12-31T01:18:40;0.98;;;0.43;;
5823;SDS011;2938;52.254;12.988;2022-12-31T01:21:06;0.73;;;0.60;;
5823;SDS011;2938;52.254;12.988;2022-12-31T01:23:36;0.50;;;0.40;;
5823;SDS011;2938;52.254;12.988;2022-12-31T01:26:02;0.30;;;0.30;;
5823;SDS011;2938;52.254;12.988;2022-12-31T01:28:29;0.55;;;0.52;;
5823;SDS011;2938;52.254;12.988;2022-12-31T01:30:55;0.45;;;0.45;;
5823;SDS011;2938;52.254;12.988;2022-12-31T01:33:21;0.40;;;0.40;;
5823;SDS011;2938;52.254;12.988;2022-12-31T01:35:46;1.38;;;0.30;;
5823;SDS011;2938;52.254;12.988;2022-12-31T01:38:14;1.25;;;0.75;;
5823;SDS011;2938;52.254;12.988;2022-12-31T01:40:40;0.40;;;0.40;;
5823;SDS011;2938;52.254;12.988;2022-12-31T01:43:15;1.13;;;0.52;;
5823;SDS011;2938;52.254;12.988;2022-12-31T01:45:49;0.80;;;0.50;;
5823;SDS011;2938;52.254;12.988;2022-12-31T01:48:20;0.43;;;0.43;;
5823;SDS011;2938;52.254;12.988;2022-12-31T01:50:52;0.80;;;0.50;;
5823;SDS011;2938;52.254;12.988;2022-12-31T01:53:18;0.30;;;0.30;;
5823;SDS011;2938;52.254;12.988;2022-12-31T01:56:02;0.47;;;0.43;;
5823;SDS011;2938;52.254;12.988;2022-12-31T01:58:29;0.32;;;0.25;;
5823;SDS011;2938;52.254;12.988;2022-12-31T02:00:59;0.32;;;0.32;;
5823;SDS011;2938;52.254;12.988;2022-12-31T02:03:28;0.63;;;0.32;;
5823;SDS011;2938;52.254;12.988;2022-12-31T02:06:05;1.17;;;0.60;;
5823;SDS011;2938;52.254;12.988;2022-12-31T02:08:34;0.55;;;0.22;;
5823;SDS011;2938;52.254;12.988;2022-12-31T02:10:59;0.52;;;0.43;;
5823;SDS011;2938;52.254;12.988;2022-12-31T02:13:25;1.55;;;1.02;;
5823;SDS011;2938;52.254;12.988;2022-12-31T02:18:34;0.40;;;0.40;;
5823;SDS011;2938;52.254;12.988;2022-12-31T02:24:01;0.38;;;0.30;;
5823;SDS011;2938;52.254;12.988;2022-12-31T02:31:36;1.27;;;0.77;;
5823;SDS011;2938;52.254;12.988;2022-12-31T02:34:12;0.52;;;0.45;;
5823;SDS011;2938;52.254;12.988;2022-12-31T02:36:42;0.40;;;0.40;;
5823;SDS011;2938;52.254;12.988;2022-12-31T02:39:09;0.57;;;0.50;;
5823;SDS011;2938;52.254;12.988;2022-12-31T02:41:37;2.95;;;0.50;;
5823;SDS011;2938;52.254;12.988;2022-12-31T02:46:54;1.38;;;0.45;;
5823;SDS011;2938;52.254;12.988;2022-12-31T02:49:38;0.73;;;0.70;;
5823;SDS011;2938;52.254;12.988;2022-12-31T03:00:47;0.95;;;0.73;;
5823;SDS011;2938;52.254;12.988;2022-12-31T03:03:32;2.97;;;1.35;;
5823;SDS011;2938;52.254;12.988;2022-12-31T03:05:58;0.45;;;0.45;;
5823;SDS011;2938;52.254;12.988;2022-12-31T03:08:29;1.52;;;0.80;;
5823;SDS011;2938;52.254;12.988;2022-12-31T03:10:57;0.65;;;0.65;;
5823;SDS011;2938;52.254;12.988;2022-12-31T03:13:23;0.55;;;0.40;;
5823;SDS011;2938;52.254;12.988;2022-12-31T03:15:48;0.40;;;0.40;;
5823;SDS011;2938;52.254;12.988;2022-12-31T03:18:15;0.60;;;0.60;;
5823;SDS011;2938;52.254;12.988;2022-12-31T03:23:32;0.60;;;0.60;;
5823;SDS011;2938;52.254;12.988;2022-12-31T03:25:58;2.85;;;0.60;;
5823;SDS011;2938;52.254;12.988;2022-12-31T03:28:24;2.65;;;0.95;;
5823;SDS011;2938;52.254;12.988;2022-12-31T03:31:00;0.70;;;0.70;;
5823;SDS011;2938;52.254;12.988;2022-12-31T03:33:29;0.50;;;0.50;;
5823;SDS011;2938;52.254;12.988;2022-12-31T03:35:55;0.73;;;0.68;;
5823;SDS011;2938;52.254;12.988;2022-12-31T03:38:21;0.73;;;0.40;;
5823;SDS011;2938;52.254;12.988;2022-12-31T03:40:47;0.52;;;0.52;;
5823;SDS011;2938;52.254;12.988;2022-12-31T03:43:14;0.60;;;0.60;;
5823;SDS011;2938;52.254;12.988;2022-12-31T03:45:40;1.00;;;0.50;;
5823;SDS011;2938;52.254;12.988;2022-12-31T03:48:06;1.20;;;0.57;;
5823;SDS011;2938;52.254;12.988;2022-12-31T03:50:32;1.17;;;0.80;;
5823;SDS011;2938;52.254;12.988;2022-12-31T03:52:58;0.45;;;0.45;;
5823;SDS011;2938;52.254;12.988;2022-12-31T03:55:23;0.80;;;0.45;;
5823;SDS011;2938;52.254;12.988;2022-12-31T03:57:49;2.13;;;0.95;;
5823;SDS011;2938;52.254;12.988;2022-12-31T04:00:15;1.67;;;0.47;;
5823;SDS011;2938;52.254;12.988;2022-12-31T04:02:43;0.50;;;0.50;;
5823;SDS011;2938;52.254;12.988;2022-12-31T04:05:09;0.77;;;0.50;;
5823;SDS011;2938;52.254;12.988;2022-12-31T04:07:35;1.00;;;0.43;;
5823;SDS011;2938;52.254;12.988;2022-12-31T04:10:01;0.30;;;0.30;;
5823;SDS011;2938;52.254;12.988;2022-12-31T04:12:28;3.22;;;0.45;;
5823;SDS011;2938;52.254;12.988;2022-12-31T04:14:53;0.70;;;0.40;;
5823;SDS011;2938;52.254;12.988;2022-12-31T04:20:15;0.60;;;0.60;;
5823;SDS011;2938;52.254;12.988;2022-12-31T04:22:40;2.90;;;0.82;;
5823;SDS011;2938;52.254;12.988;2022-12-31T04:25:06;0.20;;;0.20;;
5823;SDS011;2938;52.254;12.988;2022-12-31T04:27:35;0.63;;;0.43;;
5823;SDS011;2938;52.254;12.988;2022-12-31T04:30:02;0.30;;;0.30;;
5823;SDS011;2938;52.254;12.988;2022-12-31T04:32:27;0.65;;;0.50;;
5823;SDS011;2938;52.254;12.988;2022-12-31T04:34:53;0.43;;;0.43;;
5823;SDS011;2938;52.254;12.988;2022-12-31T04:37:18;1.45;;;0.75;;
5823;SDS011;2938;52.254;12.988;2022-12-31T04:39:43;0.65;;;0.60;;
5823;SDS011;2938;52.254;12.988;2022-12-31T04:42:09;6.75;;;0.43;;
5823;SDS011;2938;52.254;12.988;2022-12-31T04:44:34;0.43;;;0.38;;
5823;SDS011;2938;52.254;12.988;2022-12-31T04:46:59;0.68;;;0.50;;
5823;SDS011;2938;52.254;12.988;2022-12-31T04:49:24;0.40;;;0.40;;
5823;SDS011;2938;52.254;12.988;2022-12-31T04:51:50;0.63;;;0.30;;
5823;SDS011;2938;52.254;12.988;2022-12-31T04:54:15;0.50;;;0.50;;
5823;SDS011;2938;52.254;12.988;2022-12-31T04:56:40;0.88;;;0.60;;
5823;SDS011;2938;52.254;12.988;2022-12-31T04:59:06;1.60;;;1.13;;
5823;SDS011;2938;52.254;12.988;2022-12-31T05:01:31;0.75;;;0.75;;
5823;SDS011;2938;52.254;12.988;2022-12-31T05:03:57;2.38;;;1.25;;
5823;SDS011;2938;52.254;12.988;2022-12-31T05:06:22;3.72;;;1.55;;
5823;SDS011;2938;52.254;12.988;2022-12-31T05:08:48;1.00;;;0.90;;
5823;SDS011;2938;52.254;12.988;2022-12-31T05:11:14;2.92;;;1.17;;
5823;SDS011;2938;52.254;12.988;2022-12-31T05:13:39;1.92;;;1.13;;
5823;SDS011;2938;52.254;12.988;2022-12-31T05:16:05;2.78;;;0.45;;
5823;SDS011;2938;52.254;12.988;2022-12-31T05:18:31;0.32;;;0.32;;
5823;SDS011;2938;52.254;12.988;2022-12-31T05:20:57;0.68;;;0.68;;
5823;SDS011;2938;52.254;12.988;2022-12-31T05:23:22;0.57;;;0.55;;
5823;SDS011;2938;52.254;12.988;2022-12-31T05:25:48;0.95;;;0.63;;
5823;SDS011;2938;52.254;12.988;2022-12-31T05:28:14;0.55;;;0.50;;
5823;SDS011;2938;52.254;12.988;2022-12-31T05:30:40;0.82;;;0.68;;
5823;SDS011;2938;52.254;12.988;2022-12-31T05:33:05;1.55;;;0.73;;
5823;SDS011;2938;52.254;12.988;2022-12-31T05:35:31;1.85;;;0.70;;
5823;SDS011;2938;52.254;12.988;2022-12-31T05:37:56;2.40;;;0.70;;
5823;SDS011;2938;52.254;12.988;2022-12-31T05:40:23;0.75;;;0.57;;
5823;SDS011;2938;52.254;12.988;2022-12-31T05:42:49;0.75;;;0.75;;
5823;SDS011;2938;52.254;12.988;2022-12-31T05:45:14;1.02;;;0.63;;
5823;SDS011;2938;52.254;12.988;2022-12-31T05:47:41;0.82;;;0.65;;
5823;SDS011;2938;52.254;12.988;2022-12-31T05:50:07;0.85;;;0.85;;
5823;SDS011;2938;52.254;12.988;2022-12-31T05:52:33;0.55;;;0.55;;
5823;SDS011;2938;52.254;12.988;2022-12-31T05:54:58;3.42;;;0.60;;
5823;SDS011;2938;52.254;12.988;2022-12-31T05:57:23;0.63;;;0.50;;
5823;SDS011;2938;52.254;12.988;2022-12-31T05:59:49;1.85;;;0.80;;
5823;SDS011;2938;52.254;12.988;2022-12-31T06:02:17;0.80;;;0.80;;
5823;SDS011;2938;52.254;12.988;2022-12-31T06:04:42;0.82;;;0.52;;
5823;SDS011;2938;52.254;12.988;2022-12-31T06:07:08;1.50;;;0.60;;
5823;SDS011;2938;52.254;12.988;2022-12-31T06:09:33;0.55;;;0.55;;
5823;SDS011;2938;52.254;12.988;2022-12-31T06:11:58;0.50;;;0.50;;
5823;SDS011;2938;52.254;12.988;2022-12-31T06:14:24;0.88;;;0.28;;
5823;SDS011;2938;52.254;12.988;2022-12-31T06:16:49;2.00;;;0.85;;
5823;SDS011;2938;52.254;12.988;2022-12-31T06:19:14;1.27;;;0.40;;
5823;SDS011;2938;52.254;12.988;2022-12-31T06:21:40;3.45;;;1.27;;
5823;SDS011;2938;52.254;12.988;2022-12-31T06:24:05;3.35;;;0.80;;
5823;SDS011;2938;52.254;12.988;2022-12-31T06:26:31;1.10;;;0.73;;
5823;SDS011;2938;52.254;12.988;2022-12-31T06:28:56;6.13;;;0.82;;
5823;SDS011;2938;52.254;12.988;2022-12-31T06:31:21;0.60;;;0.45;;
5823;SDS011;2938;52.254;12.988;2022-12-31T06:33:47;0.73;;;0.43;;
5823;SDS011;2938;52.254;12.988;2022-12-31T06:36:13;0.30;;;0.30;;
5823;SDS011;2938;52.254;12.988;2022-12-31T06:38:40;0.52;;;0.38;;
5823;SDS011;2938;52.254;12.988;2022-12-31T06:41:07;2.38;;;0.70;;
5823;SDS011;2938;52.254;12.988;2022-12-31T06:43:36;3.25;;;0.60;;
5823;SDS011;2938;52.254;12.988;2022-12-31T06:46:03;1.05;;;0.68;;
5823;SDS011;2938;52.254;12.988;2022-12-31T06:48:29;2.47;;;0.68;;
5823;SDS011;2938;52.254;12.988;2022-12-31T06:51:04;2.65;;;0.45;;
5823;SDS011;2938;52.254;12.988;2022-12-31T06:53:30;1.05;;;0.45;;
5823;SDS011;2938;52.254;12.988;2022-12-31T06:55:56;0.70;;;0.57;;
5823;SDS011;2938;52.254;12.988;2022-12-31T06:58:21;0.43;;;0.43;;
5823;SDS011;2938;52.254;12.988;2022-12-31T07:00:49;0.47;;;0.45;;
5823;SDS011;2938;52.254;12.988;2022-12-31T07:03:22;0.30;;;0.30;;
5823;SDS011;2938;52.254;12.988;2022-12-31T07:06:02;0.52;;;0.50;;
5823;SDS011;2938;52.254;12.988;2022-12-31T07:14:30;0.55;;;0.40;;
5823;SDS011;2938;52.254;12.988;2022-12-31T07:17:30;0.60;;;0.43;;
5823;SDS011;2938;52.254;12.988;2022-12-31T07:20:16;0.38;;;0.38;;
5823;SDS011;2938;52.254;12.988;2022-12-31T07:22:43;1.88;;;0.52;;
5823;SDS011;2938;52.254;12.988;2022-12-31T07:25:16;2.17;;;0.20;;
5823;SDS011;2938;52.254;12.988;2022-12-31T07:44:04;0.32;;;0.30;;
5823;SDS011;2938;52.254;12.988;2022-12-31T07:46:46;4.30;;;0.65;;
5823;SDS011;2938;52.254;12.988;2022-12-31T07:49:16;0.30;;;0.30;;
5823;SDS011;2938;52.254;12.988;2022-12-31T07:51:42;0.40;;;0.40;;
5823;SDS011;2938;52.254;12.988;2022-12-31T07:54:07;2.92;;;0.65;;
5823;SDS011;2938;52.254;12.988;2022-12-31T07:56:33;0.65;;;0.65;;
5823;SDS011;2938;52.254;12.988;2022-12-31T08:01:50;0.90;;;0.65;;
5823;SDS011;2938;52.254;12.988;2022-12-31T08:04:25;1.38;;;0.68;;
5823;SDS011;2938;52.254;12.988;2022-12-31T08:06:56;0.50;;;0.50;;
5823;SDS011;2938;52.254;12.988;2022-12-31T08:09:38;2.08;;;1.10;;
5823;SDS011;2938;52.254;12.988;2022-12-31T08:12:16;1.70;;;0.40;;
5823;SDS011;2938;52.254;12.988;2022-12-31T08:14:43;0.80;;;0.40;;
5823;SDS011;2938;52.254;12.988;2022-12-31T08:17:19;0.32;;;0.30;;
5823;SDS011;2938;52.254;12.988;2022-12-31T08:19:47;1.40;;;0.60;;
5823;SDS011;2938;52.254;12.988;2022-12-31T08:30:56;2.75;;;0.45;;
5823;SDS011;2938;52.254;12.988;2022-12-31T08:36:16;1.17;;;0.50;;
5823;SDS011;2938;52.254;12.988;2022-12-31T08:39:06;0.50;;;0.40;;
5823;SDS011;2938;52.254;12.988;2022-12-31T08:41:44;0.60;;;0.60;;
5823;SDS011;2938;52.254;12.988;2022-12-31T08:44:16;0.50;;;0.30;;
5823;SDS011;2938;52.254;12.988;2022-12-31T08:49:42;1.15;;;0.73;;
5823;SDS011;2938;52.254;12.988;2022-12-31T08:52:12;2.00;;;0.70;;
5823;SDS011;2938;52.254;12.988;2022-12-31T08:54:47;0.52;;;0.52;;
5823;SDS011;2938;52.254;12.988;2022-12-31T08:57:19;0.57;;;0.47;;
5823;SDS011;2938;52.254;12.988;2022-12-31T09:08:32;9.00;;;0.80;;
5823;SDS011;2938;52.254;12.988;2022-12-31T09:11:33;0.75;;;0.75;;
5823;SDS011;2938;52.254;12.988;2022-12-31T09:20:13;0.77;;;0.40;;
5823;SDS011;2938;52.254;12.988;2022-12-31T09:22:40;3.75;;;1.08;;
5823;SDS011;2938;52.254;12.988;2022-12-31T09:25:06;2.28;;;0.93;;
5823;SDS011;2938;52.254;12.988;2022-12-31T09:30:27;4.10;;;0.70;;
5823;SDS011;2938;52.254;12.988;2022-12-31T09:36:06;2.92;;;0.75;;
5823;SDS011;2938;52.254;12.988;2022-12-31T09:41:48;0.85;;;0.63;;
5823;SDS011;2938;52.254;12.988;2022-12-31T09:44:43;1.73;;;0.70;;
5823;SDS011;2938;52.254;12.988;2022-12-31T09:47:40;0.93;;;0.47;;
5823;SDS011;2938;52.254;12.988;2022-12-31T09:53:09;1.75;;;0.57;;
5823;SDS011;2938;52.254;12.988;2022-12-31T09:56:11;2.20;;;1.05;;
5823;SDS011;2938;52.254;12.988;2022-12-31T10:04:12;1.45;;;1.00;;
5823;SDS011;2938;52.254;12.988;2022-12-31T10:16:29;1.77;;;0.70;;
5823;SDS011;2938;52.254;12.988;2022-12-31T10:18:41;0.65;;;0.57;;
5823;SDS011;2938;52.254;12.988;2022-12-31T10:21:18;2.25;;;1.00;;
5823;SDS011;2938;52.254;12.988;2022-12-31T10:24:07;0.85;;;0.50;;
5823;SDS011;2938;52.254;12.988;2022-12-31T10:26:50;1.35;;;0.90;;
5823;SDS011;2938;52.254;12.988;2022-12-31T10:29:23;1.90;;;0.95;;
5823;SDS011;2938;52.254;12.988;2022-12-31T10:32:15;1.30;;;0.52;;
5823;SDS011;2938;52.254;12.988;2022-12-31T10:34:52;1.08;;;0.80;;
5823;SDS011;2938;52.254;12.988;2022-12-31T10:37:42;3.20;;;0.70;;
5823;SDS011;2938;52.254;12.988;2022-12-31T10:40:19;0.90;;;0.70;;
5823;SDS011;2938;52.254;12.988;2022-12-31T10:42:51;2.00;;;1.17;;
5823;SDS011;2938;52.254;12.988;2022-12-31T10:45:39;0.60;;;0.60;;
5823;SDS011;2938;52.254;12.988;2022-12-31T10:48:36;1.35;;;0.80;;
5823;SDS011;2938;52.254;12.988;2022-12-31T10:51:17;0.65;;;0.60;;
5823;SDS011;2938;52.254;12.988;2022-12-31T10:54:12;1.42;;;0.65;;
5823;SDS011;2938;52.254;12.988;2022-12-31T10:57:17;0.68;;;0.68;;
5823;SDS011;2938;52.254;12.988;2022-12-31T11:11:48;2.50;;;0.90;;
5823;SDS011;2938;52.254;12.988;2022-12-31T11:30:24;1.63;;;1.00;;
5823;SDS011;2938;52.254;12.988;2022-12-31T11:38:26;0.77;;;0.77;;
5823;SDS011;2938;52.254;12.988;2022-12-31T11:49:10;2.13;;;1.10;;
5823;SDS011;2938;52.254;12.988;2022-12-31T11:51:54;7.93;;;0.68;;
5823;SDS011;2938;52.254;12.988;2022-12-31T11:54:57;0.50;;;0.50;;
5823;SDS011;2938;52.254;12.988;2022-12-31T12:00:12;8.52;;;1.35;;
5823;SDS011;2938;52.254;12.988;2022-12-31T12:02:47;1.45;;;0.85;;
5823;SDS011;2938;52.254;12.988;2022-12-31T12:05:16;3.42;;;0.77;;
5823;SDS011;2938;52.254;12.988;2022-12-31T12:07:44;2.33;;;0.90;;
5823;SDS011;2938;52.254;12.988;2022-12-31T12:10:18;3.72;;;1.00;;
5823;SDS011;2938;52.254;12.988;2022-12-31T12:16:02;1.13;;;0.90;;
5823;SDS011;2938;52.254;12.988;2022-12-31T12:21:16;1.50;;;1.05;;
5823;SDS011;2938;52.254;12.988;2022-12-31T12:23:54;3.45;;;0.65;;
5823;SDS011;2938;52.254;12.988;2022-12-31T12:31:55;2.65;;;0.90;;
5823;SDS011;2938;52.254;12.988;2022-12-31T12:34:23;1.05;;;0.80;;
5823;SDS011;2938;52.254;12.988;2022-12-31T12:36:53;4.85;;;0.85;;
5823;SDS011;2938;52.254;12.988;2022-12-31T12:39:29;2.45;;;0.80;;
5823;SDS011;2938;52.254;12.988;2022-12-31T12:42:16;4.03;;;1.15;;
5823;SDS011;2938;52.254;12.988;2022-12-31T12:44:44;2.13;;;0.95;;
5823;SDS011;2938;52.254;12.988;2022-12-31T12:47:14;2.85;;;0.82;;
5823;SDS011;2938;52.254;12.988;2022-12-31T12:49:41;1.27;;;0.60;;
5823;SDS011;2938;52.254;12.988;2022-12-31T12:55:15;1.33;;;0.90;;
5823;SDS011;2938;52.254;12.988;2022-12-31T13:06:23;1.15;;;0.82;;
5823;SDS011;2938;52.254;12.988;2022-12-31T13:14:30;1.85;;;1.73;;
5823;SDS011;2938;52.254;12.988;2022-12-31T13:17:17;3.72;;;0.70;;
5823;SDS011;2938;52.254;12.988;2022-12-31T13:19:49;1.17;;;0.82;;
5823;SDS011;2938;52.254;12.988;2022-12-31T13:22:28;6.35;;;1.00;;
5823;SDS011;2938;52.254;12.988;2022-12-31T13:27:43;0.75;;;0.65;;
5823;SDS011;2938;52.254;12.988;2022-12-31T13:30:23;1.02;;;0.82;;
5823;SDS011;2938;52.254;12.988;2022-12-31T13:32:58;5.85;;;1.27;;
5823;SDS011;2938;52.254;12.988;2022-12-31T13:35:28;2.75;;;1.02;;
5823;SDS011;2938;52.254;12.988;2022-12-31T13:37:57;1.75;;;1.38;;
5823;SDS011;2938;52.254;12.988;2022-12-31T13:56:42;3.92;;;1.20;;
5823;SDS011;2938;52.254;12.988;2022-12-31T13:59:14;1.10;;;1.00;;
5823;SDS011;2938;52.254;12.988;2022-12-31T14:01:54;4.43;;;1.25;;
5823;SDS011;2938;52.254;12.988;2022-12-31T14:04:25;5.45;;;1.20;;
5823;SDS011;2938;52.254;12.988;2022-12-31T14:06:59;8.95;;;1.50;;
5823;SDS011;2938;52.254;12.988;2022-12-31T14:19:51;1.55;;;0.77;;
5823;SDS011;2938;52.254;12.988;2022-12-31T14:22:28;2.72;;;1.25;;
5823;SDS011;2938;52.254;12.988;2022-12-31T14:24:58;2.30;;;1.10;;
5823;SDS011;2938;52.254;12.988;2022-12-31T14:27:39;2.50;;;0.82;;
5823;SDS011;2938;52.254;12.988;2022-12-31T14:30:14;1.30;;;0.88;;
5823;SDS011;2938;52.254;12.988;2022-12-31T14:32:45;2.47;;;1.13;;
5823;SDS011;2938;52.254;12.988;2022-12-31T14:38:25;0.90;;;0.82;;
5823;SDS011;2938;52.254;12.988;2022-12-31T14:46:55;2.22;;;1.02;;
5823;SDS011;2938;52.254;12.988;2022-12-31T14:49:32;5.90;;;1.27;;
5823;SDS011;2938;52.254;12.988;2022-12-31T14:54:43;2.30;;;1.00;;
5823;SDS011;2938;52.254;12.988;2022-12-31T14:57:08;3.30;;;0.90;;
5823;SDS011;2938;52.254;12.988;2022-12-31T14:59:55;5.07;;;1.70;;
5823;SDS011;2938;52.254;12.988;2022-12-31T15:02:32;1.20;;;0.85;;
5823;SDS011;2938;52.254;12.988;2022-12-31T15:05:02;4.63;;;1.35;;
5823;SDS011;2938;52.254;12.988;2022-12-31T15:10:20;2.67;;;1.15;;
5823;SDS011;2938;52.254;12.988;2022-12-31T15:13:00;1.65;;;1.33;;
5823;SDS011;2938;52.254;12.988;2022-12-31T15:21:33;3.70;;;1.63;;
5823;SDS011;2938;52.254;12.988;2022-12-31T15:24:23;1.70;;;1.00;;
5823;SDS011;2938;52.254;12.988;2022-12-31T15:26:50;3.67;;;1.20;;
5823;SDS011;2938;52.254;12.988;2022-12-31T15:29:27;1.70;;;1.02;;
5823;SDS011;2938;52.254;12.988;2022-12-31T15:31:52;1.42;;;1.00;;
5823;SDS011;2938;52.254;12.988;2022-12-31T15:34:37;3.17;;;1.33;;
5823;SDS011;2938;52.254;12.988;2022-12-31T15:37:03;2.08;;;1.30;;
5823;SDS011;2938;52.254;12.988;2022-12-31T15:41:56;4.10;;;1.75;;
5823;SDS011;2938;52.254;12.988;2022-12-31T15:44:27;1.55;;;1.27;;
5823;SDS011;2938;52.254;12.988;2022-12-31T15:47:00;2.85;;;1.55;;
5823;SDS011;2938;52.254;12.988;2022-12-31T15:49:29;1.63;;;1.52;;
5823;SDS011;2938;52.254;12.988;2022-12-31T15:52:03;1.25;;;1.15;;
5823;SDS011;2938;52.254;12.988;2022-12-31T15:54:47;2.28;;;0.98;;
5823;SDS011;2938;52.254;12.988;2022-12-31T15:57:18;6.30;;;1.38;;
5823;SDS011;2938;52.254;12.988;2022-12-31T15:59:55;6.38;;;1.77;;
5823;SDS011;2938;52.254;12.988;2022-12-31T16:02:22;2.38;;;1.40;;
5823;SDS011;2938;52.254;12.988;2022-12-31T16:05:23;6.13;;;1.42;;
5823;SDS011;2938;52.254;12.988;2022-12-31T16:07:53;2.55;;;1.55;;
5823;SDS011;2938;52.254;12.988;2022-12-31T16:10:24;5.50;;;1.63;;
5823;SDS011;2938;52.254;12.988;2022-12-31T16:12:51;8.93;;;1.73;;
5823;SDS011;2938;52.254;12.988;2022-12-31T16:15:21;2.90;;;1.30;;
5823;SDS011;2938;52.254;12.988;2022-12-31T16:17:56;8.07;;;2.33;;
5823;SDS011;2938;52.254;12.988;2022-12-31T16:20:24;3.33;;;1.60;;
5823;SDS011;2938;52.254;12.988;2022-12-31T16:22:57;6.18;;;1.90;;
5823;SDS011;2938;52.254;12.988;2022-12-31T16:25:24;3.90;;;2.53;;
5823;SDS011;2938;52.254;12.988;2022-12-31T16:27:50;3.53;;;2.03;;
5823;SDS011;2938;52.254;12.988;2022-12-31T16:30:18;2.78;;;1.95;;
5823;SDS011;2938;52.254;12.988;2022-12-31T16:32:47;2.38;;;1.85;;
5823;SDS011;2938;52.254;12.988;2022-12-31T16:40:31;4.32;;;2.42;;
5823;SDS011;2938;52.254;12.988;2022-12-31T16:42:57;4.68;;;2.80;;
5823;SDS011;2938;52.254;12.988;2022-12-31T16:45:30;3.22;;;2.42;;
5823;SDS011;2938;52.254;12.988;2022-12-31T16:48:00;10.93;;;1.90;;
5823;SDS011;2938;52.254;12.988;2022-12-31T16:50:31;1.58;;;1.40;;
5823;SDS011;2938;52.254;12.988;2022-12-31T16:52:58;3.78;;;2.13;;
5823;SDS011;2938;52.254;12.988;2022-12-31T16:55:28;5.57;;;2.47;;
5823;SDS011;2938;52.254;12.988;2022-12-31T17:00:32;2.75;;;2.28;;
5823;SDS011;2938;52.254;12.988;2022-12-31T17:03:19;4.03;;;1.80;;
5823;SDS011;2938;52.254;12.988;2022-12-31T17:08:27;5.27;;;1.27;;
5823;SDS011;2938;52.254;12.988;2022-12-31T17:11:16;7.82;;;1.70;;
5823;SDS011;2938;52.254;12.988;2022-12-31T17:13:42;1.85;;;1.30;;
5823;SDS011;2938;52.254;12.988;2022-12-31T17:16:16;5.65;;;1.50;;
5823;SDS011;2938;52.254;12.988;2022-12-31T17:18:42;4.10;;;1.88;;
5823;SDS011;2938;52.254;12.988;2022-12-31T17:21:08;4.13;;;1.48;;
5823;SDS011;2938;52.254;12.988;2022-12-31T17:23:34;1.85;;;1.00;;
5823;SDS011;2938;52.254;12.988;2022-12-31T17:28:43;2.22;;;1.33;;
5823;SDS011;2938;52.254;12.988;2022-12-31T17:36:36;2.85;;;1.80;;
5823;SDS011;2938;52.254;12.988;2022-12-31T17:39:17;5.93;;;1.80;;
5823;SDS011;2938;52.254;12.988;2022-12-31T17:41:44;2.70;;;1.63;;
5823;SDS011;2938;52.254;12.988;2022-12-31T17:44:20;2.10;;;1.05;;
5823;SDS011;2938;52.254;12.988;2022-12-31T17:46:48;2.63;;;1.42;;
5823;SDS011;2938;52.254;12.988;2022-12-31T17:49:14;6.10;;;2.10;;
5823;SDS011;2938;52.254;12.988;2022-12-31T17:51:39;3.78;;;1.67;;
5823;SDS011;2938;52.254;12.988;2022-12-31T17:54:08;3.38;;;1.83;;
5823;SDS011;2938;52.254;12.988;2022-12-31T17:56:37;4.15;;;1.73;;
5823;SDS011;2938;52.254;12.988;2022-12-31T17:59:03;3.80;;;1.85;;
5823;SDS011;2938;52.254;12.988;2022-12-31T18:01:28;4.40;;;2.00;;
5823;SDS011;2938;52.254;12.988;2022-12-31T18:03:54;7.20;;;2.50;;
5823;SDS011;2938;52.254;12.988;2022-12-31T18:06:20;5.05;;;1.85;;
5823;SDS011;2938;52.254;12.988;2022-12-31T18:08:46;4.85;;;1.52;;
5823;SDS011;2938;52.254;12.988;2022-12-31T18:11:16;2.63;;;2.30;;
5823;SDS011;2938;52.254;12.988;2022-12-31T18:13:42;6.05;;;2.53;;
5823;SDS011;2938;52.254;12.988;2022-12-31T18:16:08;5.10;;;2.42;;
5823;SDS011;2938;52.254;12.988;2022-12-31T18:18:33;4.05;;;2.35;;
5823;SDS011;2938;52.254;12.988;2022-12-31T18:21:04;5.15;;;3.08;;
5823;SDS011;2938;52.254;12.988;2022-12-31T18:23:42;3.38;;;2.30;;
5823;SDS011;2938;52.254;12.988;2022-12-31T18:26:15;4.72;;;2.92;;
5823;SDS011;2938;52.254;12.988;2022-12-31T18:28:42;2.78;;;2.15;;
5823;SDS011;2938;52.254;12.988;2022-12-31T18:31:15;3.35;;;2.58;;
5823;SDS011;2938;52.254;12.988;2022-12-31T18:33:43;4.82;;;3.38;;
5823;SDS011;2938;52.254;12.988;2022-12-31T18:36:10;3.28;;;2.17;;
5823;SDS011;2938;52.254;12.988;2022-12-31T18:38:36;6.32;;;3.05;;
5823;SDS011;2938;52.254;12.988;2022-12-31T18:41:02;3.83;;;2.50;;
5823;SDS011;2938;52.254;12.988;2022-12-31T18:43:27;4.85;;;2.53;;
5823;SDS011;2938;52.254;12.988;2022-12-31T18:45:53;4.47;;;3.30;;
5823;SDS011;2938;52.254;12.988;2022-12-31T18:48:18;7.65;;;3.05;;
5823;SDS011;2938;52.254;12.988;2022-12-31T18:50:43;10.55;;;3.60;;
5823;SDS011;2938;52.254;12.988;2022-12-31T18:53:20;5.88;;;3.22;;
5823;SDS011;2938;52.254;12.988;2022-12-31T18:55:48;7.13;;;3.10;;
5823;SDS011;2938;52.254;12.988;2022-12-31T18:58:15;4.57;;;3.05;;
5823;SDS011;2938;52.254;12.988;2022-12-31T19:00:40;4.50;;;3.00;;
5823;SDS011;2938;52.254;12.988;2022-12-31T19:03:13;5.35;;;2.55;;
5823;SDS011;2938;52.254;12.988;2022-12-31T19:05:40;7.65;;;3.20;;
5823;SDS011;2938;52.254;12.988;2022-12-31T19:08:06;5.35;;;2.60;;
5823;SDS011;2938;52.254;12.988;2022-12-31T19:10:32;3.83;;;2.33;;
5823;SDS011;2938;52.254;12.988;2022-12-31T19:12:57;5.60;;;2.60;;
5823;SDS011;2938;52.254;12.988;2022-12-31T19:17:49;5.60;;;3.47;;
5823;SDS011;2938;52.254;12.988;2022-12-31T19:20:15;6.88;;;4.07;;
5823;SDS011;2938;52.254;12.988;2022-12-31T19:22:40;8.10;;;5.43;;
5823;SDS011;2938;52.254;12.988;2022-12-31T19:25:20;3.80;;;3.33;;
5823;SDS011;2938;52.254;12.988;2022-12-31T19:27:47;9.63;;;3.73;;
5823;SDS011;2938;52.254;12.988;2022-12-31T19:30:16;6.80;;;3.83;;
5823;SDS011;2938;52.254;12.988;2022-12-31T19:32:44;7.40;;;3.00;;
5823;SDS011;2938;52.254;12.988;2022-12-31T19:35:10;9.80;;;3.05;;
5823;SDS011;2938;52.254;12.988;2022-12-31T19:37:36;7.28;;;2.30;;
5823;SDS011;2938;52.254;12.988;2022-12-31T19:40:02;3.55;;;2.75;;
5823;SDS011;2938;52.254;12.988;2022-12-31T19:42:27;5.28;;;2.65;;
5823;SDS011;2938;52.254;12.988;2022-12-31T19:44:53;7.13;;;2.67;;
5823;SDS011;2938;52.254;12.988;2022-12-31T19:47:18;3.05;;;2.38;;
5823;SDS011;2938;52.254;12.988;2022-12-31T19:49:43;4.72;;;2.17;;
5823;SDS011;2938;52.254;12.988;2022-12-31T19:52:09;4.38;;;2.20;;
5823;SDS011;2938;52.254;12.988;2022-12-31T19:54:34;2.92;;;2.15;;